sensor_id;sensor_type;location;lat;lon;timestamp;pressure;altitude;pressure_sealevel;temperature;humidity
56604;BME280;42486;47.478;19.036;2023-02-28T00:00:29;101316.97;;;0.33;64.44
56604;BME280;42486;47.478;19.036;2023-02-28T00:03:34;101316.16;;;0.31;65.84
56604;BME280;42486;47.478;19.036;2023-02-28T00:06:43;101323.00;;;0.32;65.50
56604;BME280;42486;47.478;19.036;2023-02-28T00:09:53;101319.50;;;0.36;65.33
56604;BME280;42486;47.478;19.036;2023-02-28T00:13:02;101327.09;;;0.42;65.80
56604;BME280;42486;47.478;19.036;2023-02-28T00:16:09;101327.09;;;0.42;65.01
56604;BME280;42486;47.478;19.036;2023-02-28T00:19:23;101333.06;;;0.46;66.37
56604;BME280;42486;47.478;19.036;2023-02-28T00:22:27;101334.87;;;0.39;65.48
56604;BME280;42486;47.478;19.036;2023-02-28T00:25:36;101339.28;;;0.31;64.93
56604;BME280;42486;47.478;19.036;2023-02-28T00:28:39;101338.34;;;0.37;65.54
56604;BME280;42486;47.478;19.036;2023-02-28T00:31:45;101345.25;;;0.32;65.31
56604;BME280;42486;47.478;19.036;2023-02-28T00:34:53;101339.22;;;0.34;65.52
56604;BME280;42486;47.478;19.036;2023-02-28T00:38:00;101349.34;;;0.45;65.67
56604;BME280;42486;47.478;19.036;2023-02-28T00:41:17;101343.41;;;0.41;65.97
56604;BME280;42486;47.478;19.036;2023-02-28T00:44:28;101345.25;;;0.33;65.50
56604;BME280;42486;47.478;19.036;2023-02-28T00:47:43;101342.53;;;0.42;66.88
56604;BME280;42486;47.478;19.036;2023-02-28T00:50:58;101347.53;;;0.52;64.77
56604;BME280;42486;47.478;19.036;2023-02-28T00:54:18;101352.72;;;0.49;64.66
56604;BME280;42486;47.478;19.036;2023-02-28T00:57:35;101353.53;;;0.52;65.43
56604;BME280;42486;47.478;19.036;2023-02-28T01:00:49;101352.66;;;0.53;66.07
56604;BME280;42486;47.478;19.036;2023-02-28T01:04:06;101350.09;;;0.53;65.37
56604;BME280;42486;47.478;19.036;2023-02-28T01:07:15;101342.41;;;0.52;65.71
56604;BME280;42486;47.478;19.036;2023-02-28T01:10:21;101350.88;;;0.57;64.58
56604;BME280;42486;47.478;19.036;2023-02-28T01:13:31;101354.25;;;0.60;63.26
56604;BME280;42486;47.478;19.036;2023-02-28T01:16:44;101343.88;;;0.65;63.25
56604;BME280;42486;47.478;19.036;2023-02-28T01:19:48;101352.31;;;0.73;63.92
56604;BME280;42486;47.478;19.036;2023-02-28T01:22:56;101354.00;;;0.74;63.83
56604;BME280;42486;47.478;19.036;2023-02-28T01:26:12;101353.03;;;0.83;64.09
56604;BME280;42486;47.478;19.036;2023-02-28T01:29:18;101351.47;;;0.73;64.36
56604;BME280;42486;47.478;19.036;2023-02-28T01:32:30;101354.00;;;0.74;64.17
56604;BME280;42486;47.478;19.036;2023-02-28T01:35:36;101354.06;;;0.71;64.93
56604;BME280;42486;47.478;19.036;2023-02-28T01:38:40;101346.41;;;0.68;64.12
56604;BME280;42486;47.478;19.036;2023-02-28T01:41:46;101353.28;;;0.66;63.46
56604;BME280;42486;47.478;19.036;2023-02-28T01:48:01;101350.66;;;0.71;63.89
56604;BME280;42486;47.478;19.036;2023-02-28T01:51:10;101344.47;;;0.81;63.15
56604;BME280;42486;47.478;19.036;2023-02-28T01:54:21;101351.59;;;0.67;62.84
56604;BME280;42486;47.478;19.036;2023-02-28T01:57:32;101349.91;;;0.64;63.81
56604;BME280;42486;47.478;19.036;2023-02-28T02:00:41;101344.72;;;0.67;63.67
56604;BME280;42486;47.478;19.036;2023-02-28T02:03:54;101341.38;;;0.60;64.72
56604;BME280;42486;47.478;19.036;2023-02-28T02:07:00;101349.88;;;0.67;64.98
56604;BME280;42486;47.478;19.036;2023-02-28T02:36:45;101350.09;;;0.53;66.30
56604;BME280;42486;47.478;19.036;2023-02-28T02:40:08;101342.34;;;0.56;66.85
56604;BME280;42486;47.478;19.036;2023-02-28T02:43:40;101347.41;;;0.59;65.63
56604;BME280;42486;47.478;19.036;2023-02-28T02:46:51;101342.37;;;0.53;66.34
56604;BME280;42486;47.478;19.036;2023-02-28T02:49:58;101350.09;;;0.52;65.31
56604;BME280;42486;47.478;19.036;2023-02-28T02:53:03;101346.63;;;0.54;66.21
56604;BME280;42486;47.478;19.036;2023-02-28T02:56:16;101347.47;;;0.55;65.06
56604;BME280;42486;47.478;19.036;2023-02-28T02:59:34;101343.13;;;0.58;64.21
56604;BME280;42486;47.478;19.036;2023-02-28T03:02:48;101342.37;;;0.53;64.90
56604;BME280;42486;47.478;19.036;2023-02-28T03:05:58;101349.09;;;0.60;63.41
56604;BME280;42486;47.478;19.036;2023-02-28T03:09:03;101346.66;;;0.53;64.76
56604;BME280;42486;47.478;19.036;2023-02-28T03:12:12;101353.38;;;0.61;66.45
56604;BME280;42486;47.478;19.036;2023-02-28T03:15:26;101354.31;;;0.56;64.99
56604;BME280;42486;47.478;19.036;2023-02-28T03:22:19;101353.47;;;0.55;64.71
56604;BME280;42486;47.478;19.036;2023-02-28T03:25:37;101352.63;;;0.55;64.72
56604;BME280;42486;47.478;19.036;2023-02-28T03:28:51;101356.16;;;0.49;65.09
56604;BME280;42486;47.478;19.036;2023-02-28T03:35:15;101352.69;;;0.50;64.69
56604;BME280;42486;47.478;19.036;2023-02-28T03:38:29;101359.44;;;0.59;65.11
56604;BME280;42486;47.478;19.036;2023-02-28T03:41:43;101350.81;;;0.60;65.72
56604;BME280;42486;47.478;19.036;2023-02-28T03:45:14;101351.72;;;0.57;64.54
56604;BME280;42486;47.478;19.036;2023-02-28T03:48:24;101353.62;;;0.46;64.93
56604;BME280;42486;47.478;19.036;2023-02-28T03:51:30;101352.72;;;0.49;65.17
56604;BME280;42486;47.478;19.036;2023-02-28T03:54:43;101363.09;;;0.42;65.58
56604;BME280;42486;47.478;19.036;2023-02-28T03:58:01;101357.94;;;0.44;65.91
56604;BME280;42486;47.478;19.036;2023-02-28T04:01:10;101358.84;;;0.41;65.86
56604;BME280;42486;47.478;19.036;2023-02-28T04:04:19;101349.31;;;0.47;65.80
56604;BME280;42486;47.478;19.036;2023-02-28T04:07:24;101356.09;;;0.52;65.67
56604;BME280;42486;47.478;19.036;2023-02-28T04:10:32;101351.78;;;0.53;64.79
56604;BME280;42486;47.478;19.036;2023-02-28T04:13:37;101346.81;;;0.42;66.17
56604;BME280;42486;47.478;19.036;2023-02-28T04:16:42;101339.09;;;0.42;66.40
56604;BME280;42486;47.478;19.036;2023-02-28T04:19:49;101347.66;;;0.42;67.79
56604;BME280;42486;47.478;19.036;2023-02-28T04:22:58;101347.47;;;0.55;66.74
56604;BME280;42486;47.478;19.036;2023-02-28T04:26:01;101342.37;;;0.53;65.80
56604;BME280;42486;47.478;19.036;2023-02-28T04:29:04;101344.97;;;0.52;65.72
56604;BME280;42486;47.478;19.036;2023-02-28T04:32:12;101343.06;;;0.64;64.03
56604;BME280;42486;47.478;19.036;2023-02-28T04:35:19;101349.91;;;0.64;65.00
56604;BME280;42486;47.478;19.036;2023-02-28T04:38:33;101343.16;;;0.57;64.62
56604;BME280;42486;47.478;19.036;2023-02-28T04:41:41;101342.22;;;0.61;63.23
56604;BME280;42486;47.478;19.036;2023-02-28T04:44:52;101344.81;;;0.61;64.22
56604;BME280;42486;47.478;19.036;2023-02-28T04:48:00;101349.03;;;0.65;65.24
56604;BME280;42486;47.478;19.036;2023-02-28T04:51:04;101343.88;;;0.65;65.54
56604;BME280;42486;47.478;19.036;2023-02-28T04:54:10;101342.28;;;0.59;62.92
56604;BME280;42486;47.478;19.036;2023-02-28T04:57:17;101344.06;;;0.54;63.08
56604;BME280;42486;47.478;19.036;2023-02-28T05:00:22;101342.37;;;0.53;64.21
56604;BME280;42486;47.478;19.036;2023-02-28T05:03:28;101341.31;;;0.65;66.21
56604;BME280;42486;47.478;19.036;2023-02-28T05:06:33;101349.03;;;0.67;66.39
56604;BME280;42486;47.478;19.036;2023-02-28T05:09:38;101343.91;;;0.63;65.83
56604;BME280;42486;47.478;19.036;2023-02-28T05:12:48;101347.38;;;0.62;65.32
56604;BME280;42486;47.478;19.036;2023-02-28T05:15:56;101344.69;;;0.69;66.15
56604;BME280;42486;47.478;19.036;2023-02-28T05:18:59;101348.28;;;0.58;65.32
56604;BME280;42486;47.478;19.036;2023-02-28T05:22:10;101347.66;;;0.46;64.97
56604;BME280;42486;47.478;19.036;2023-02-28T05:25:16;101345.91;;;0.46;65.19
56604;BME280;42486;47.478;19.036;2023-02-28T05:28:32;101353.47;;;0.57;65.58
56604;BME280;42486;47.478;19.036;2023-02-28T05:31:44;101355.91;;;0.64;64.66
56604;BME280;42486;47.478;19.036;2023-02-28T05:34:51;101358.34;;;0.72;64.16
56604;BME280;42486;47.478;19.036;2023-02-28T05:37:58;101356.75;;;0.63;65.79
56604;BME280;42486;47.478;19.036;2023-02-28T05:41:05;101361.16;;;0.57;64.84
56604;BME280;42486;47.478;19.036;2023-02-28T05:44:12;101359.44;;;0.59;65.91
56604;BME280;42486;47.478;19.036;2023-02-28T05:47:19;101356.97;;;0.51;65.12
56604;BME280;42486;47.478;19.036;2023-02-28T05:50:26;101359.56;;;0.50;65.70
56604;BME280;42486;47.478;19.036;2023-02-28T05:53:30;101363.91;;;0.44;64.93
56604;BME280;42486;47.478;19.036;2023-02-28T05:56:42;101368.16;;;0.47;65.08
56604;BME280;42486;47.478;19.036;2023-02-28T05:59:48;101375.81;;;0.53;65.65
56604;BME280;42486;47.478;19.036;2023-02-28T06:02:52;101376.66;;;0.54;64.36
56604;BME280;42486;47.478;19.036;2023-02-28T06:06:04;101382.53;;;0.60;64.61
56604;BME280;42486;47.478;19.036;2023-02-28T06:09:11;101374.75;;;0.67;64.85
56604;BME280;42486;47.478;19.036;2023-02-28T06:12:19;101376.22;;;0.80;65.22
56604;BME280;42486;47.478;19.036;2023-02-28T06:15:26;101383.03;;;0.82;63.29
56604;BME280;42486;47.478;19.036;2023-02-28T06:18:32;101388.03;;;0.90;62.31
56604;BME280;42486;47.478;19.036;2023-02-28T06:21:44;101379.44;;;0.93;63.07
56604;BME280;42486;47.478;19.036;2023-02-28T06:24:51;101379.34;;;0.97;61.50
56604;BME280;42486;47.478;19.036;2023-02-28T06:27:59;101389.91;;;0.82;62.75
56604;BME280;42486;47.478;19.036;2023-02-28T06:31:09;101387.06;;;0.99;63.00
56604;BME280;42486;47.478;19.036;2023-02-28T06:34:19;101394.72;;;1.02;62.76
56604;BME280;42486;47.478;19.036;2023-02-28T06:37:25;101395.69;;;0.95;63.22
56604;BME280;42486;47.478;19.036;2023-02-28T06:40:33;101396.16;;;1.17;63.23
56604;BME280;42486;47.478;19.036;2023-02-28T06:43:41;101395.16;;;1.25;62.01
56604;BME280;42486;47.478;19.036;2023-02-28T06:46:47;101403.59;;;1.32;62.93
56604;BME280;42486;47.478;19.036;2023-02-28T06:49:53;101407.72;;;1.41;62.29
56604;BME280;42486;47.478;19.036;2023-02-28T06:53:00;101406.81;;;1.45;62.22
56604;BME280;42486;47.478;19.036;2023-02-28T06:56:12;101411.00;;;1.49;61.22
56604;BME280;42486;47.478;19.036;2023-02-28T06:59:22;101400.75;;;1.47;61.34
56604;BME280;42486;47.478;19.036;2023-02-28T07:02:27;101402.50;;;1.45;61.01
56604;BME280;42486;47.478;19.036;2023-02-28T07:05:36;101403.91;;;1.62;61.02
56604;BME280;42486;47.478;19.036;2023-02-28T07:08:45;101406.47;;;1.63;59.86
56604;BME280;42486;47.478;19.036;2023-02-28T07:11:50;101413.03;;;1.78;59.94
56604;BME280;42486;47.478;19.036;2023-02-28T07:14:52;101424.50;;;2.05;58.16
56604;BME280;42486;47.478;19.036;2023-02-28T07:17:56;101421.88;;;2.07;57.75
56604;BME280;42486;47.478;19.036;2023-02-28T07:21:08;101432.81;;;2.18;57.45
56604;BME280;42486;47.478;19.036;2023-02-28T07:24:13;101425.44;;;2.03;57.62
56604;BME280;42486;47.478;19.036;2023-02-28T07:27:19;101429.84;;;1.96;57.79
56604;BME280;42486;47.478;19.036;2023-02-28T07:30:36;101433.53;;;2.25;57.70
56604;BME280;42486;47.478;19.036;2023-02-28T07:33:46;101426.87;;;2.16;56.76
56604;BME280;42486;47.478;19.036;2023-02-28T07:36:53;101430.81;;;1.90;57.90
56604;BME280;42486;47.478;19.036;2023-02-28T07:39:58;101426.13;;;2.11;57.13
56604;BME280;42486;47.478;19.036;2023-02-28T07:43:04;101434.44;;;2.24;57.10
56604;BME280;42486;47.478;19.036;2023-02-28T07:46:09;101440.81;;;2.45;56.11
56604;BME280;42486;47.478;19.036;2023-02-28T07:49:15;101442.16;;;2.62;56.71
56604;BME280;42486;47.478;19.036;2023-02-28T07:52:20;101437.53;;;2.39;55.97
56604;BME280;42486;47.478;19.036;2023-02-28T07:55:24;101436.19;;;2.22;55.91
56604;BME280;42486;47.478;19.036;2023-02-28T07:58:30;101444.75;;;2.24;56.14
56604;BME280;42486;47.478;19.036;2023-02-28T08:01:34;101439.66;;;2.59;54.87
56604;BME280;42486;47.478;19.036;2023-02-28T08:04:38;101439.38;;;2.33;54.85
56604;BME280;42486;47.478;19.036;2023-02-28T08:07:44;101441.41;;;2.57;55.57
56604;BME280;42486;47.478;19.036;2023-02-28T08:10:53;101435.16;;;2.29;54.80
56604;BME280;42486;47.478;19.036;2023-02-28T08:13:58;101440.03;;;2.42;55.18
56604;BME280;42486;47.478;19.036;2023-02-28T08:17:01;101438.28;;;2.82;54.42
56604;BME280;42486;47.478;19.036;2023-02-28T08:20:04;101437.28;;;2.87;52.81
56604;BME280;42486;47.478;19.036;2023-02-28T08:23:08;101444.84;;;2.95;52.81
56604;BME280;42486;47.478;19.036;2023-02-28T08:26:11;101450.31;;;3.17;51.96
56604;BME280;42486;47.478;19.036;2023-02-28T08:29:16;101446.06;;;3.49;50.84
56604;BME280;42486;47.478;19.036;2023-02-28T08:32:19;101448.25;;;3.94;49.62
56604;BME280;42486;47.478;19.036;2023-02-28T08:35:31;101445.38;;;3.73;50.29
56604;BME280;42486;47.478;19.036;2023-02-28T08:38:35;101442.28;;;3.92;50.02
56604;BME280;42486;47.478;19.036;2023-02-28T08:41:39;101438.59;;;4.01;50.04
56604;BME280;42486;47.478;19.036;2023-02-28T08:44:41;101445.09;;;3.84;49.83
56604;BME280;42486;47.478;19.036;2023-02-28T08:47:50;101438.78;;;4.23;50.77
56604;BME280;42486;47.478;19.036;2023-02-28T08:51:02;101442.72;;;4.64;48.51
56604;BME280;42486;47.478;19.036;2023-02-28T08:54:10;101441.69;;;4.70;49.24
56604;BME280;42486;47.478;19.036;2023-02-28T08:57:22;101440.47;;;4.81;49.70
56604;BME280;42486;47.478;19.036;2023-02-28T09:00:24;101434.75;;;4.97;47.89
56604;BME280;42486;47.478;19.036;2023-02-28T09:03:29;101429.47;;;4.73;47.99
56604;BME280;42486;47.478;19.036;2023-02-28T09:06:34;101437.34;;;4.97;51.21
56604;BME280;42486;47.478;19.036;2023-02-28T09:09:38;101440.25;;;4.88;48.23
56604;BME280;42486;47.478;19.036;2023-02-28T09:12:56;101442.94;;;5.11;50.76
56604;BME280;42486;47.478;19.036;2023-02-28T09:16:01;101435.34;;;5.05;48.61
56604;BME280;42486;47.478;19.036;2023-02-28T09:19:05;101437.09;;;5.04;47.79
56604;BME280;42486;47.478;19.036;2023-02-28T09:22:10;101439.34;;;4.89;48.60
56604;BME280;42486;47.478;19.036;2023-02-28T09:25:15;101440.34;;;4.84;49.29
56604;BME280;42486;47.478;19.036;2023-02-28T09:28:23;101438.84;;;5.29;49.25
56604;BME280;42486;47.478;19.036;2023-02-28T09:31:28;101435.00;;;5.16;47.97
56604;BME280;42486;47.478;19.036;2023-02-28T09:34:32;101446.75;;;5.26;47.70
56604;BME280;42486;47.478;19.036;2023-02-28T09:37:38;101440.87;;;4.94;48.39
56604;BME280;42486;47.478;19.036;2023-02-28T09:40:48;101444.53;;;4.89;49.12
56604;BME280;42486;47.478;19.036;2023-02-28T09:43:58;101448.09;;;4.58;50.79
56604;BME280;42486;47.478;19.036;2023-02-28T09:47:13;101441.78;;;4.67;49.86
56604;BME280;42486;47.478;19.036;2023-02-28T09:53:48;101441.44;;;4.77;49.40
56604;BME280;42486;47.478;19.036;2023-02-28T10:00:05;101448.84;;;4.88;48.91
56604;BME280;42486;47.478;19.036;2023-02-28T10:07:00;101436.34;;;5.27;48.57
56604;BME280;42486;47.478;19.036;2023-02-28T10:10:13;101444.88;;;5.56;48.12
56604;BME280;42486;47.478;19.036;2023-02-28T10:13:35;101426.13;;;4.98;48.70
56604;BME280;42486;47.478;19.036;2023-02-28T10:16:43;101433.63;;;5.30;47.69
56604;BME280;42486;47.478;19.036;2023-02-28T10:20:07;101425.41;;;5.68;48.04
56604;BME280;42486;47.478;19.036;2023-02-28T10:26:26;101430.91;;;5.84;47.50
56604;BME280;42486;47.478;19.036;2023-02-28T10:29:35;101428.66;;;5.98;46.81
56604;BME280;42486;47.478;19.036;2023-02-28T10:32:40;101428.16;;;5.13;47.83
56604;BME280;42486;47.478;19.036;2023-02-28T10:35:47;101426.00;;;5.01;48.78
56604;BME280;42486;47.478;19.036;2023-02-28T10:38:51;101411.50;;;5.22;47.90
56604;BME280;42486;47.478;19.036;2023-02-28T10:41:54;101416.50;;;5.51;49.62
56604;BME280;42486;47.478;19.036;2023-02-28T10:51:42;101398.75;;;5.41;47.64
56604;BME280;42486;47.478;19.036;2023-02-28T10:54:45;101404.62;;;5.69;47.70
56604;BME280;42486;47.478;19.036;2023-02-28T10:57:49;101403.19;;;5.37;48.22
56604;BME280;42486;47.478;19.036;2023-02-28T11:00:52;101402.41;;;5.35;49.11
56604;BME280;42486;47.478;19.036;2023-02-28T11:03:56;101394.81;;;5.29;48.46
56604;BME280;42486;47.478;19.036;2023-02-28T11:07:04;101394.69;;;4.82;49.73
56604;BME280;42486;47.478;19.036;2023-02-28T11:10:16;101385.22;;;5.33;50.29
56604;BME280;42486;47.478;19.036;2023-02-28T11:13:21;101395.66;;;5.55;48.82
56604;BME280;42486;47.478;19.036;2023-02-28T11:16:36;101396.44;;;5.57;48.66
56604;BME280;42486;47.478;19.036;2023-02-28T11:19:44;101390.19;;;5.14;50.10
56604;BME280;42486;47.478;19.036;2023-02-28T11:22:48;101391.31;;;5.55;48.86
56604;BME280;42486;47.478;19.036;2023-02-28T11:26:00;101390.03;;;5.90;50.13
56604;BME280;42486;47.478;19.036;2023-02-28T11:29:12;101392.97;;;6.05;47.57
56604;BME280;42486;47.478;19.036;2023-02-28T11:32:20;101384.22;;;5.12;48.72
56604;BME280;42486;47.478;19.036;2023-02-28T11:35:34;101381.50;;;5.63;48.81
56604;BME280;42486;47.478;19.036;2023-02-28T11:38:45;101379.94;;;5.83;49.19
56604;BME280;42486;47.478;19.036;2023-02-28T11:48:07;101377.62;;;5.26;50.72
56604;BME280;42486;47.478;19.036;2023-02-28T11:54:59;101371.72;;;5.48;49.85
56604;BME280;42486;47.478;19.036;2023-02-28T11:58:29;101377.00;;;5.68;50.39
56604;BME280;42486;47.478;19.036;2023-02-28T12:04:48;101374.47;;;6.58;47.05
56604;BME280;42486;47.478;19.036;2023-02-28T12:08:01;101365.66;;;6.18;48.54
56604;BME280;42486;47.478;19.036;2023-02-28T12:17:48;101364.25;;;6.53;48.95
56604;BME280;42486;47.478;19.036;2023-02-28T12:24:34;101357.28;;;6.33;48.51
56604;BME280;42486;47.478;19.036;2023-02-28T12:27:44;101345.56;;;6.45;52.25
56604;BME280;42486;47.478;19.036;2023-02-28T12:30:58;101332.72;;;6.83;49.73
56604;BME280;42486;47.478;19.036;2023-02-28T12:34:10;101338.41;;;7.13;49.56
56604;BME280;42486;47.478;19.036;2023-02-28T12:37:22;101333.00;;;6.77;48.63
56604;BME280;42486;47.478;19.036;2023-02-28T12:44:39;101323.78;;;6.70;49.11
56604;BME280;42486;47.478;19.036;2023-02-28T12:47:37;101325.34;;;6.94;48.99
56604;BME280;42486;47.478;19.036;2023-02-28T12:50:40;101336.03;;;7.07;48.01
56604;BME280;42486;47.478;19.036;2023-02-28T12:57:15;101323.91;;;7.08;50.54
56604;BME280;42486;47.478;19.036;2023-02-28T13:00:25;101311.50;;;6.94;49.68
56604;BME280;42486;47.478;19.036;2023-02-28T13:10:22;101313.69;;;6.20;50.49
56604;BME280;42486;47.478;19.036;2023-02-28T13:13:32;101307.22;;;6.52;49.04
56604;BME280;42486;47.478;19.036;2023-02-28T13:16:48;101300.25;;;6.73;50.34
56604;BME280;42486;47.478;19.036;2023-02-28T13:22:57;101308.56;;;7.01;48.72
56604;BME280;42486;47.478;19.036;2023-02-28T13:26:00;101298.59;;;6.72;49.81
56604;BME280;42486;47.478;19.036;2023-02-28T13:35:37;101302.41;;;7.04;49.86
56604;BME280;42486;47.478;19.036;2023-02-28T13:38:44;101294.50;;;6.87;49.97
56604;BME280;42486;47.478;19.036;2023-02-28T13:41:50;101289.97;;;6.92;51.91
56604;BME280;42486;47.478;19.036;2023-02-28T13:58:31;101269.47;;;6.65;50.81
56604;BME280;42486;47.478;19.036;2023-02-28T14:01:45;101273.53;;;6.50;51.28
56604;BME280;42486;47.478;19.036;2023-02-28T14:08:05;101265.13;;;6.23;52.98
56604;BME280;42486;47.478;19.036;2023-02-28T14:11:23;101265.03;;;6.47;52.77
56604;BME280;42486;47.478;19.036;2023-02-28T14:17:42;101260.06;;;6.40;52.07
56604;BME280;42486;47.478;19.036;2023-02-28T14:20:45;101267.28;;;6.34;52.02
56604;BME280;42486;47.478;19.036;2023-02-28T14:27:08;101271.44;;;6.58;54.60
56604;BME280;42486;47.478;19.036;2023-02-28T14:37:01;101260.34;;;6.34;52.46
56604;BME280;42486;47.478;19.036;2023-02-28T14:40:12;101252.06;;;6.47;52.57
56604;BME280;42486;47.478;19.036;2023-02-28T14:43:21;101254.66;;;6.47;53.05
56604;BME280;42486;47.478;19.036;2023-02-28T14:46:28;101253.16;;;6.41;53.82
56604;BME280;42486;47.478;19.036;2023-02-28T14:49:42;101249.03;;;6.35;52.47
56604;BME280;42486;47.478;19.036;2023-02-28T14:52:48;101253.59;;;6.30;53.04
56604;BME280;42486;47.478;19.036;2023-02-28T14:55:58;101245.09;;;6.27;52.79
56604;BME280;42486;47.478;19.036;2023-02-28T15:02:31;101254.41;;;6.10;55.34
56604;BME280;42486;47.478;19.036;2023-02-28T15:05:36;101252.41;;;6.17;53.32
56604;BME280;42486;47.478;19.036;2023-02-28T15:08:40;101251.50;;;6.18;53.10
56604;BME280;42486;47.478;19.036;2023-02-28T15:11:46;101260.25;;;6.15;53.67
56604;BME280;42486;47.478;19.036;2023-02-28T15:14:59;101264.06;;;6.07;54.23
56604;BME280;42486;47.478;19.036;2023-02-28T15:18:07;101260.28;;;5.92;53.97
56604;BME280;42486;47.478;19.036;2023-02-28T15:21:21;101261.81;;;5.98;54.30
56604;BME280;42486;47.478;19.036;2023-02-28T15:24:47;101257.31;;;6.03;54.45
56604;BME280;42486;47.478;19.036;2023-02-28T15:28:00;101262.38;;;6.06;55.82
56604;BME280;42486;47.478;19.036;2023-02-28T15:31:17;101259.09;;;6.01;54.82
56604;BME280;42486;47.478;19.036;2023-02-28T15:34:45;101259.84;;;6.04;54.00
56604;BME280;42486;47.478;19.036;2023-02-28T15:37:56;101256.19;;;5.86;54.87
56604;BME280;42486;47.478;19.036;2023-02-28T15:41:00;101246.13;;;5.79;55.43
56604;BME280;42486;47.478;19.036;2023-02-28T15:44:17;101246.19;;;5.77;55.18
56604;BME280;42486;47.478;19.036;2023-02-28T15:47:27;101247.25;;;5.71;56.50
56604;BME280;42486;47.478;19.036;2023-02-28T15:50:37;101257.88;;;5.65;57.17
56604;BME280;42486;47.478;19.036;2023-02-28T15:53:46;101253.94;;;5.55;57.65
56604;BME280;42486;47.478;19.036;2023-02-28T15:56:51;101253.63;;;5.41;58.14
56604;BME280;42486;47.478;19.036;2023-02-28T15:59:57;101243.59;;;5.32;59.17
56604;BME280;42486;47.478;19.036;2023-02-28T16:03:01;101248.28;;;5.22;59.11
56604;BME280;42486;47.478;19.036;2023-02-28T16:06:36;101245.97;;;5.14;60.06
56604;BME280;42486;47.478;19.036;2023-02-28T16:09:41;101243.81;;;5.02;60.46
56604;BME280;42486;47.478;19.036;2023-02-28T16:12:58;101249.06;;;5.00;61.19
56604;BME280;42486;47.478;19.036;2023-02-28T16:16:00;101263.28;;;4.89;60.17
56604;BME280;42486;47.478;19.036;2023-02-28T16:19:08;101261.59;;;4.88;61.70
56604;BME280;42486;47.478;19.036;2023-02-28T16:22:18;101263.44;;;4.84;60.56
56604;BME280;42486;47.478;19.036;2023-02-28T16:25:26;101264.50;;;4.78;62.27
56604;BME280;42486;47.478;19.036;2023-02-28T16:28:37;101263.53;;;4.81;62.20
56604;BME280;42486;47.478;19.036;2023-02-28T16:31:47;101262.94;;;4.74;62.22
56604;BME280;42486;47.478;19.036;2023-02-28T16:34:56;101262.81;;;4.77;62.61
56604;BME280;42486;47.478;19.036;2023-02-28T16:38:00;101266.22;;;4.79;63.97
56604;BME280;42486;47.478;19.036;2023-02-28T16:41:06;101259.44;;;4.75;62.83
56604;BME280;42486;47.478;19.036;2023-02-28T16:44:19;101265.75;;;4.68;63.25
56604;BME280;42486;47.478;19.036;2023-02-28T16:47:26;101270.03;;;4.68;63.61
56604;BME280;42486;47.478;19.036;2023-02-28T16:50:31;101278.72;;;4.67;64.45
56604;BME280;42486;47.478;19.036;2023-02-28T16:53:38;101271.06;;;4.63;63.68
56604;BME280;42486;47.478;19.036;2023-02-28T16:56:44;101281.59;;;4.57;63.75
56604;BME280;42486;47.478;19.036;2023-02-28T16:59:48;101283.34;;;4.57;64.12
56604;BME280;42486;47.478;19.036;2023-02-28T17:02:54;101278.19;;;4.57;64.20
56604;BME280;42486;47.478;19.036;2023-02-28T17:05:58;101289.31;;;4.59;64.84
56604;BME280;42486;47.478;19.036;2023-02-28T17:09:02;101296.88;;;4.65;64.51
56604;BME280;42486;47.478;19.036;2023-02-28T17:12:08;101289.88;;;4.69;65.44
56604;BME280;42486;47.478;19.036;2023-02-28T17:15:17;101294.25;;;4.67;65.06
56604;BME280;42486;47.478;19.036;2023-02-28T17:18:20;101293.69;;;4.57;64.80
56604;BME280;42486;47.478;19.036;2023-02-28T17:21:25;101300.59;;;4.58;65.24
56604;BME280;42486;47.478;19.036;2023-02-28T17:24:30;101300.59;;;4.58;65.98
56604;BME280;42486;47.478;19.036;2023-02-28T17:27:33;101300.72;;;4.53;66.18
56604;BME280;42486;47.478;19.036;2023-02-28T17:30:38;101294.53;;;4.57;65.68
56604;BME280;42486;47.478;19.036;2023-02-28T17:33:50;101292.16;;;4.51;65.96
56604;BME280;42486;47.478;19.036;2023-02-28T17:36:55;101293.00;;;4.52;66.50
56604;BME280;42486;47.478;19.036;2023-02-28T17:40:00;101303.69;;;4.43;66.49
56604;BME280;42486;47.478;19.036;2023-02-28T17:43:04;101299.13;;;4.49;68.37
56604;BME280;42486;47.478;19.036;2023-02-28T17:46:20;101294.81;;;4.50;67.78
56604;BME280;42486;47.478;19.036;2023-02-28T17:49:24;101297.66;;;4.42;67.45
56604;BME280;42486;47.478;19.036;2023-02-28T17:52:27;101298.59;;;4.39;67.18
56604;BME280;42486;47.478;19.036;2023-02-28T17:55:32;101297.66;;;4.42;67.71
56604;BME280;42486;47.478;19.036;2023-02-28T17:58:37;101304.50;;;4.43;68.07
56604;BME280;42486;47.478;19.036;2023-02-28T18:01:41;101307.69;;;4.51;67.32
56604;BME280;42486;47.478;19.036;2023-02-28T18:04:44;101297.31;;;4.53;67.25
56604;BME280;42486;47.478;19.036;2023-02-28T18:07:47;101307.09;;;4.43;69.26
56604;BME280;42486;47.478;19.036;2023-02-28T18:10:50;101311.34;;;4.46;67.50
56604;BME280;42486;47.478;19.036;2023-02-28T18:13:55;101307.94;;;4.44;68.38
56604;BME280;42486;47.478;19.036;2023-02-28T18:17:01;101312.03;;;4.51;67.52
56604;BME280;42486;47.478;19.036;2023-02-28T18:20:04;101307.91;;;4.45;68.67
56604;BME280;42486;47.478;19.036;2023-02-28T18:23:10;101314.59;;;4.52;69.95
56604;BME280;42486;47.478;19.036;2023-02-28T18:26:17;101317.31;;;4.48;67.79
56604;BME280;42486;47.478;19.036;2023-02-28T18:29:23;101316.97;;;4.32;68.24
56604;BME280;42486;47.478;19.036;2023-02-28T18:32:27;101312.03;;;4.24;68.18
56604;BME280;42486;47.478;19.036;2023-02-28T18:35:30;101316.16;;;4.30;69.85
56604;BME280;42486;47.478;19.036;2023-02-28T18:38:37;101317.84;;;4.31;69.48
56604;BME280;42486;47.478;19.036;2023-02-28T18:41:40;101322.75;;;4.38;70.02